sensor_id;sensor_type;location;lat;lon;timestamp;temperature;humidity
58865;DHT22;45702;52.982;6.658;2023-05-16T00:00:25;9.60;99.90
58865;DHT22;45702;52.982;6.658;2023-05-16T00:02:51;9.50;99.90
58865;DHT22;45702;52.982;6.658;2023-05-16T00:05:16;9.50;99.90
58865;DHT22;45702;52.982;6.658;2023-05-16T00:07:43;9.50;99.90
58865;DHT22;45702;52.982;6.658;2023-05-16T00:10:10;9.40;99.90
58865;DHT22;45702;52.982;6.658;2023-05-16T00:12:37;9.40;99.90
58865;DHT22;45702;52.982;6.658;2023-05-16T00:15:07;9.30;99.90
58865;DHT22;45702;52.982;6.658;2023-05-16T00:17:34;9.30;99.90
58865;DHT22;45702;52.982;6.658;2023-05-16T00:20:04;9.30;99.90
58865;DHT22;45702;52.982;6.658;2023-05-16T00:22:32;9.30;99.90
58865;DHT22;45702;52.982;6.658;2023-05-16T00:24:58;9.30;99.90
58865;DHT22;45702;52.982;6.658;2023-05-16T00:27:24;9.30;99.90
58865;DHT22;45702;52.982;6.658;2023-05-16T00:29:49;9.30;99.90
58865;DHT22;45702;52.982;6.658;2023-05-16T00:32:16;9.30;99.90
58865;DHT22;45702;52.982;6.658;2023-05-16T00:34:42;9.30;99.90
58865;DHT22;45702;52.982;6.658;2023-05-16T00:37:07;9.20;99.90
58865;DHT22;45702;52.982;6.658;2023-05-16T00:39:33;9.20;99.90
58865;DHT22;45702;52.982;6.658;2023-05-16T00:41:59;9.20;99.90
58865;DHT22;45702;52.982;6.658;2023-05-16T00:44:25;9.20;99.90
58865;DHT22;45702;52.982;6.658;2023-05-16T00:46:50;9.10;99.90
58865;DHT22;45702;52.982;6.658;2023-05-16T00:49:17;9.10;99.90
58865;DHT22;45702;52.982;6.658;2023-05-16T00:51:43;9.10;99.90
58865;DHT22;45702;52.982;6.658;2023-05-16T00:54:09;9.00;99.90
58865;DHT22;45702;52.982;6.658;2023-05-16T00:56:36;9.00;99.90
58865;DHT22;45702;52.982;6.658;2023-05-16T00:59:02;8.90;99.90
58865;DHT22;45702;52.982;6.658;2023-05-16T01:01:28;8.90;99.90
58865;DHT22;45702;52.982;6.658;2023-05-16T01:03:55;8.90;99.90
58865;DHT22;45702;52.982;6.658;2023-05-16T01:06:21;8.90;99.90
58865;DHT22;45702;52.982;6.658;2023-05-16T01:08:47;8.80;99.90
58865;DHT22;45702;52.982;6.658;2023-05-16T01:11:25;8.80;99.90
58865;DHT22;45702;52.982;6.658;2023-05-16T01:14:11;8.80;99.90
58865;DHT22;45702;52.982;6.658;2023-05-16T01:25:31;8.70;99.90
58865;DHT22;45702;52.982;6.658;2023-05-16T01:28:03;8.60;99.90
58865;DHT22;45702;52.982;6.658;2023-05-16T01:30:39;8.70;99.90
58865;DHT22;45702;52.982;6.658;2023-05-16T01:33:06;8.60;99.90
58865;DHT22;45702;52.982;6.658;2023-05-16T01:35:33;8.60;99.90
58865;DHT22;45702;52.982;6.658;2023-05-16T01:38:11;8.60;99.90
58865;DHT22;45702;52.982;6.658;2023-05-16T01:40:54;8.60;99.90
58865;DHT22;45702;52.982;6.658;2023-05-16T01:43:32;8.60;99.90
58865;DHT22;45702;52.982;6.658;2023-05-16T01:46:14;8.60;99.90
58865;DHT22;45702;52.982;6.658;2023-05-16T01:48:57;8.60;99.90
58865;DHT22;45702;52.982;6.658;2023-05-16T01:51:28;8.50;99.90
58865;DHT22;45702;52.982;6.658;2023-05-16T01:53:58;8.50;99.90
58865;DHT22;45702;52.982;6.658;2023-05-16T01:56:27;8.40;99.90
58865;DHT22;45702;52.982;6.658;2023-05-16T01:58:54;8.40;99.90
58865;DHT22;45702;52.982;6.658;2023-05-16T02:01:22;8.40;99.90
58865;DHT22;45702;52.982;6.658;2023-05-16T02:03:48;8.30;99.90
58865;DHT22;45702;52.982;6.658;2023-05-16T02:06:13;8.30;99.90
58865;DHT22;45702;52.982;6.658;2023-05-16T02:08:39;8.20;99.90
58865;DHT22;45702;52.982;6.658;2023-05-16T02:11:05;8.20;99.90
58865;DHT22;45702;52.982;6.658;2023-05-16T02:13:30;8.20;99.90
58865;DHT22;45702;52.982;6.658;2023-05-16T02:15:56;8.10;99.90
58865;DHT22;45702;52.982;6.658;2023-05-16T02:18:22;8.10;99.90
58865;DHT22;45702;52.982;6.658;2023-05-16T02:20:48;8.10;99.90
58865;DHT22;45702;52.982;6.658;2023-05-16T02:23:14;8.00;99.90
58865;DHT22;45702;52.982;6.658;2023-05-16T02:25:40;8.00;99.90
58865;DHT22;45702;52.982;6.658;2023-05-16T02:28:05;8.00;99.90
58865;DHT22;45702;52.982;6.658;2023-05-16T02:30:31;8.00;99.90
58865;DHT22;45702;52.982;6.658;2023-05-16T02:32:57;8.00;99.90
58865;DHT22;45702;52.982;6.658;2023-05-16T02:35:23;8.00;99.90
58865;DHT22;45702;52.982;6.658;2023-05-16T02:37:49;8.00;99.90
58865;DHT22;45702;52.982;6.658;2023-05-16T02:40:15;8.00;99.90
58865;DHT22;45702;52.982;6.658;2023-05-16T02:42:41;8.00;99.90
58865;DHT22;45702;52.982;6.658;2023-05-16T02:45:07;8.00;99.90
58865;DHT22;45702;52.982;6.658;2023-05-16T02:47:33;7.90;99.90
58865;DHT22;45702;52.982;6.658;2023-05-16T02:49:58;8.00;99.90
58865;DHT22;45702;52.982;6.658;2023-05-16T02:52:24;7.90;99.90
58865;DHT22;45702;52.982;6.658;2023-05-16T02:54:50;7.90;99.90
58865;DHT22;45702;52.982;6.658;2023-05-16T02:57:16;7.90;99.90
58865;DHT22;45702;52.982;6.658;2023-05-16T02:59:41;7.90;99.90
58865;DHT22;45702;52.982;6.658;2023-05-16T03:02:07;7.90;99.90
58865;DHT22;45702;52.982;6.658;2023-05-16T03:04:33;7.90;99.90
58865;DHT22;45702;52.982;6.658;2023-05-16T03:06:59;7.90;99.90
58865;DHT22;45702;52.982;6.658;2023-05-16T03:09:25;7.90;99.90
58865;DHT22;45702;52.982;6.658;2023-05-16T03:11:50;8.00;99.90
58865;DHT22;45702;52.982;6.658;2023-05-16T03:14:16;8.00;99.90
58865;DHT22;45702;52.982;6.658;2023-05-16T03:16:42;8.00;99.90
58865;DHT22;45702;52.982;6.658;2023-05-16T03:19:09;8.00;99.90
58865;DHT22;45702;52.982;6.658;2023-05-16T03:21:35;7.90;99.90
58865;DHT22;45702;52.982;6.658;2023-05-16T03:24:02;8.00;99.90
58865;DHT22;45702;52.982;6.658;2023-05-16T03:26:28;8.00;99.90
58865;DHT22;45702;52.982;6.658;2023-05-16T03:28:54;8.00;99.90
58865;DHT22;45702;52.982;6.658;2023-05-16T03:31:19;7.90;99.90
58865;DHT22;45702;52.982;6.658;2023-05-16T03:33:45;7.90;99.90
58865;DHT22;45702;52.982;6.658;2023-05-16T03:36:11;7.90;99.90
58865;DHT22;45702;52.982;6.658;2023-05-16T03:38:37;7.90;99.90
58865;DHT22;45702;52.982;6.658;2023-05-16T03:41:02;7.90;99.90
58865;DHT22;45702;52.982;6.658;2023-05-16T03:43:28;7.90;99.90
58865;DHT22;45702;52.982;6.658;2023-05-16T03:45:54;7.90;99.90
58865;DHT22;45702;52.982;6.658;2023-05-16T03:48:20;7.80;99.90
58865;DHT22;45702;52.982;6.658;2023-05-16T03:50:46;7.80;99.90
58865;DHT22;45702;52.982;6.658;2023-05-16T03:53:12;7.80;99.90
58865;DHT22;45702;52.982;6.658;2023-05-16T03:55:38;7.80;99.90
58865;DHT22;45702;52.982;6.658;2023-05-16T03:58:04;7.70;99.90
58865;DHT22;45702;52.982;6.658;2023-05-16T04:00:29;7.70;99.90
58865;DHT22;45702;52.982;6.658;2023-05-16T04:02:55;7.70;99.90
58865;DHT22;45702;52.982;6.658;2023-05-16T04:05:21;7.70;99.90
58865;DHT22;45702;52.982;6.658;2023-05-16T04:07:47;7.70;99.90
58865;DHT22;45702;52.982;6.658;2023-05-16T04:10:13;7.70;99.90
58865;DHT22;45702;52.982;6.658;2023-05-16T04:12:39;7.80;99.90
58865;DHT22;45702;52.982;6.658;2023-05-16T04:15:06;7.80;99.90
58865;DHT22;45702;52.982;6.658;2023-05-16T04:17:33;7.90;99.90
58865;DHT22;45702;52.982;6.658;2023-05-16T04:19:58;7.90;99.90
58865;DHT22;45702;52.982;6.658;2023-05-16T04:22:25;7.90;99.90
58865;DHT22;45702;52.982;6.658;2023-05-16T04:24:51;7.90;99.90
58865;DHT22;45702;52.982;6.658;2023-05-16T04:27:16;8.00;99.90
58865;DHT22;45702;52.982;6.658;2023-05-16T04:29:42;8.00;99.90
58865;DHT22;45702;52.982;6.658;2023-05-16T04:32:09;8.00;99.90
58865;DHT22;45702;52.982;6.658;2023-05-16T04:34:35;8.00;99.90
58865;DHT22;45702;52.982;6.658;2023-05-16T04:37:05;8.00;99.90
58865;DHT22;45702;52.982;6.658;2023-05-16T04:39:33;8.10;99.90
58865;DHT22;45702;52.982;6.658;2023-05-16T04:41:59;8.10;99.90
58865;DHT22;45702;52.982;6.658;2023-05-16T04:44:26;8.10;99.90
58865;DHT22;45702;52.982;6.658;2023-05-16T04:46:51;8.10;99.90
58865;DHT22;45702;52.982;6.658;2023-05-16T04:49:20;8.10;99.90
58865;DHT22;45702;52.982;6.658;2023-05-16T04:51:46;8.10;99.90
58865;DHT22;45702;52.982;6.658;2023-05-16T04:54:13;8.20;99.90
58865;DHT22;45702;52.982;6.658;2023-05-16T04:56:38;8.20;99.90
58865;DHT22;45702;52.982;6.658;2023-05-16T04:59:04;8.20;99.90
58865;DHT22;45702;52.982;6.658;2023-05-16T05:01:30;8.30;99.90
58865;DHT22;45702;52.982;6.658;2023-05-16T05:03:56;8.40;99.90
58865;DHT22;45702;52.982;6.658;2023-05-16T05:06:21;8.50;99.90
58865;DHT22;45702;52.982;6.658;2023-05-16T05:08:48;8.50;99.90
58865;DHT22;45702;52.982;6.658;2023-05-16T05:11:13;8.60;99.90
58865;DHT22;45702;52.982;6.658;2023-05-16T05:13:39;8.70;99.90
58865;DHT22;45702;52.982;6.658;2023-05-16T05:16:05;8.70;99.90
58865;DHT22;45702;52.982;6.658;2023-05-16T05:18:31;8.80;99.90
58865;DHT22;45702;52.982;6.658;2023-05-16T05:20:57;8.80;99.90
58865;DHT22;45702;52.982;6.658;2023-05-16T05:23:23;8.90;99.90
58865;DHT22;45702;52.982;6.658;2023-05-16T05:25:49;8.90;99.90
58865;DHT22;45702;52.982;6.658;2023-05-16T05:28:15;8.90;99.90
58865;DHT22;45702;52.982;6.658;2023-05-16T05:30:41;8.90;99.90
58865;DHT22;45702;52.982;6.658;2023-05-16T05:33:07;8.90;99.90
58865;DHT22;45702;52.982;6.658;2023-05-16T05:35:33;8.90;99.90
58865;DHT22;45702;52.982;6.658;2023-05-16T05:37:59;8.90;99.90
58865;DHT22;45702;52.982;6.658;2023-05-16T05:40:24;8.90;99.90
58865;DHT22;45702;52.982;6.658;2023-05-16T05:42:50;9.00;99.90
58865;DHT22;45702;52.982;6.658;2023-05-16T05:45:16;8.90;99.90
58865;DHT22;45702;52.982;6.658;2023-05-16T05:47:42;8.90;99.90
58865;DHT22;45702;52.982;6.658;2023-05-16T05:50:09;8.90;99.90
58865;DHT22;45702;52.982;6.658;2023-05-16T05:52:36;8.90;99.90
58865;DHT22;45702;52.982;6.658;2023-05-16T05:55:03;8.90;99.90
58865;DHT22;45702;52.982;6.658;2023-05-16T05:57:28;8.90;99.90
58865;DHT22;45702;52.982;6.658;2023-05-16T05:59:54;9.00;99.90
58865;DHT22;45702;52.982;6.658;2023-05-16T06:02:20;9.00;99.90
58865;DHT22;45702;52.982;6.658;2023-05-16T06:04:46;9.00;99.90
58865;DHT22;45702;52.982;6.658;2023-05-16T06:07:11;9.10;99.90
58865;DHT22;45702;52.982;6.658;2023-05-16T06:09:37;9.10;99.90
58865;DHT22;45702;52.982;6.658;2023-05-16T06:12:03;9.20;99.90
58865;DHT22;45702;52.982;6.658;2023-05-16T06:14:29;9.30;99.90
58865;DHT22;45702;52.982;6.658;2023-05-16T06:16:55;9.30;99.90
58865;DHT22;45702;52.982;6.658;2023-05-16T06:19:21;9.40;99.90
58865;DHT22;45702;52.982;6.658;2023-05-16T06:21:47;9.50;99.90
58865;DHT22;45702;52.982;6.658;2023-05-16T06:24:13;9.60;99.90
58865;DHT22;45702;52.982;6.658;2023-05-16T06:26:38;9.60;99.90
58865;DHT22;45702;52.982;6.658;2023-05-16T06:29:04;9.70;99.90
58865;DHT22;45702;52.982;6.658;2023-05-16T06:31:30;9.80;99.90
58865;DHT22;45702;52.982;6.658;2023-05-16T06:33:56;9.90;99.90
58865;DHT22;45702;52.982;6.658;2023-05-16T06:36:22;9.90;99.90
58865;DHT22;45702;52.982;6.658;2023-05-16T06:38:48;10.00;99.90
58865;DHT22;45702;52.982;6.658;2023-05-16T06:41:15;10.10;99.90
58865;DHT22;45702;52.982;6.658;2023-05-16T06:43:40;10.20;99.90
58865;DHT22;45702;52.982;6.658;2023-05-16T06:46:06;10.40;99.90
58865;DHT22;45702;52.982;6.658;2023-05-16T06:48:32;10.50;99.90
58865;DHT22;45702;52.982;6.658;2023-05-16T06:50:58;10.60;99.90
58865;DHT22;45702;52.982;6.658;2023-05-16T06:53:23;10.60;99.90
58865;DHT22;45702;52.982;6.658;2023-05-16T06:55:49;10.70;99.90
58865;DHT22;45702;52.982;6.658;2023-05-16T06:58:15;10.80;99.90
58865;DHT22;45702;52.982;6.658;2023-05-16T07:00:41;10.90;99.90
58865;DHT22;45702;52.982;6.658;2023-05-16T07:03:08;10.90;99.90
58865;DHT22;45702;52.982;6.658;2023-05-16T07:05:34;11.00;99.90
58865;DHT22;45702;52.982;6.658;2023-05-16T07:07:59;10.90;99.90
58865;DHT22;45702;52.982;6.658;2023-05-16T07:10:25;11.00;99.90
58865;DHT22;45702;52.982;6.658;2023-05-16T07:12:51;10.90;99.90
58865;DHT22;45702;52.982;6.658;2023-05-16T07:15:17;10.90;99.90
58865;DHT22;45702;52.982;6.658;2023-05-16T07:17:43;11.00;99.70
58865;DHT22;45702;52.982;6.658;2023-05-16T07:20:09;11.00;99.90
58865;DHT22;45702;52.982;6.658;2023-05-16T07:22:38;11.10;99.90
58865;DHT22;45702;52.982;6.658;2023-05-16T07:25:04;11.20;99.20
58865;DHT22;45702;52.982;6.658;2023-05-16T07:27:30;11.30;99.00
58865;DHT22;45702;52.982;6.658;2023-05-16T07:29:56;11.30;98.00
58865;DHT22;45702;52.982;6.658;2023-05-16T07:32:22;11.40;97.90
58865;DHT22;45702;52.982;6.658;2023-05-16T07:34:48;11.40;96.20
58865;DHT22;45702;52.982;6.658;2023-05-16T07:37:14;11.40;95.00
58865;DHT22;45702;52.982;6.658;2023-05-16T07:39:40;11.50;95.20
58865;DHT22;45702;52.982;6.658;2023-05-16T07:42:07;11.50;94.70
58865;DHT22;45702;52.982;6.658;2023-05-16T07:44:33;11.50;94.40
58865;DHT22;45702;52.982;6.658;2023-05-16T07:46:59;11.50;95.20
58865;DHT22;45702;52.982;6.658;2023-05-16T07:49:24;11.60;94.90
58865;DHT22;45702;52.982;6.658;2023-05-16T07:51:50;11.60;93.80
58865;DHT22;45702;52.982;6.658;2023-05-16T07:54:16;11.60;93.40
58865;DHT22;45702;52.982;6.658;2023-05-16T07:56:42;11.60;93.00
58865;DHT22;45702;52.982;6.658;2023-05-16T07:59:08;11.60;93.20
58865;DHT22;45702;52.982;6.658;2023-05-16T08:01:35;11.60;93.30
58865;DHT22;45702;52.982;6.658;2023-05-16T08:04:00;11.60;93.30
58865;DHT22;45702;52.982;6.658;2023-05-16T08:06:26;11.60;93.40
58865;DHT22;45702;52.982;6.658;2023-05-16T08:08:52;11.60;94.10
58865;DHT22;45702;52.982;6.658;2023-05-16T08:11:18;11.60;94.00
58865;DHT22;45702;52.982;6.658;2023-05-16T08:13:49;11.60;94.20
58865;DHT22;45702;52.982;6.658;2023-05-16T08:16:15;11.70;94.50
58865;DHT22;45702;52.982;6.658;2023-05-16T08:18:41;11.70;92.30
58865;DHT22;45702;52.982;6.658;2023-05-16T08:21:07;11.80;92.80
58865;DHT22;45702;52.982;6.658;2023-05-16T08:23:33;11.90;92.40
58865;DHT22;45702;52.982;6.658;2023-05-16T08:25:59;12.10;92.40
58865;DHT22;45702;52.982;6.658;2023-05-16T08:28:25;12.20;90.90
58865;DHT22;45702;52.982;6.658;2023-05-16T08:30:51;12.30;90.30
58865;DHT22;45702;52.982;6.658;2023-05-16T08:33:17;12.40;90.00
58865;DHT22;45702;52.982;6.658;2023-05-16T08:35:43;12.50;88.60
58865;DHT22;45702;52.982;6.658;2023-05-16T08:38:09;12.60;87.00
58865;DHT22;45702;52.982;6.658;2023-05-16T08:40:35;12.50;85.00
58865;DHT22;45702;52.982;6.658;2023-05-16T08:43:01;12.50;84.60
58865;DHT22;45702;52.982;6.658;2023-05-16T08:45:27;12.40;82.80
58865;DHT22;45702;52.982;6.658;2023-05-16T08:47:54;12.40;82.30
58865;DHT22;45702;52.982;6.658;2023-05-16T08:50:23;12.40;83.40
58865;DHT22;45702;52.982;6.658;2023-05-16T08:52:51;12.50;85.50
58865;DHT22;45702;52.982;6.658;2023-05-16T08:55:19;12.60;87.90
58865;DHT22;45702;52.982;6.658;2023-05-16T08:57:47;12.80;87.10
58865;DHT22;45702;52.982;6.658;2023-05-16T09:00:14;12.90;87.20
58865;DHT22;45702;52.982;6.658;2023-05-16T09:02:54;13.00;85.90
58865;DHT22;45702;52.982;6.658;2023-05-16T09:05:21;13.20;86.20
58865;DHT22;45702;52.982;6.658;2023-05-16T09:07:47;13.40;85.90
58865;DHT22;45702;52.982;6.658;2023-05-16T09:10:12;13.60;86.10
58865;DHT22;45702;52.982;6.658;2023-05-16T09:12:40;13.70;84.70
58865;DHT22;45702;52.982;6.658;2023-05-16T09:15:09;13.70;85.50
58865;DHT22;45702;52.982;6.658;2023-05-16T09:17:37;13.90;86.30
58865;DHT22;45702;52.982;6.658;2023-05-16T09:20:11;14.10;84.20
58865;DHT22;45702;52.982;6.658;2023-05-16T09:22:37;14.10;77.90
58865;DHT22;45702;52.982;6.658;2023-05-16T09:25:03;14.00;79.00
58865;DHT22;45702;52.982;6.658;2023-05-16T09:27:30;14.10;78.00
58865;DHT22;45702;52.982;6.658;2023-05-16T09:29:57;14.20;78.90
58865;DHT22;45702;52.982;6.658;2023-05-16T09:32:23;14.30;79.50
58865;DHT22;45702;52.982;6.658;2023-05-16T09:34:51;14.30;77.00
58865;DHT22;45702;52.982;6.658;2023-05-16T09:37:18;14.10;74.60
58865;DHT22;45702;52.982;6.658;2023-05-16T09:39:49;13.90;76.20
58865;DHT22;45702;52.982;6.658;2023-05-16T09:42:16;13.80;75.10
58865;DHT22;45702;52.982;6.658;2023-05-16T09:44:46;13.80;75.60
58865;DHT22;45702;52.982;6.658;2023-05-16T09:47:14;13.70;74.80
58865;DHT22;45702;52.982;6.658;2023-05-16T09:49:44;13.60;76.40
58865;DHT22;45702;52.982;6.658;2023-05-16T09:52:11;13.70;76.70
58865;DHT22;45702;52.982;6.658;2023-05-16T09:54:37;13.80;77.70
58865;DHT22;45702;52.982;6.658;2023-05-16T09:57:03;14.00;77.90
58865;DHT22;45702;52.982;6.658;2023-05-16T09:59:30;14.20;77.50
58865;DHT22;45702;52.982;6.658;2023-05-16T10:01:59;14.30;77.20
58865;DHT22;45702;52.982;6.658;2023-05-16T10:04:25;14.50;73.70
58865;DHT22;45702;52.982;6.658;2023-05-16T10:06:54;14.50;72.60
58865;DHT22;45702;52.982;6.658;2023-05-16T10:09:21;14.40;71.50
58865;DHT22;45702;52.982;6.658;2023-05-16T10:11:47;14.40;72.00
58865;DHT22;45702;52.982;6.658;2023-05-16T10:14:16;14.30;69.70
58865;DHT22;45702;52.982;6.658;2023-05-16T10:16:46;14.10;71.70
58865;DHT22;45702;52.982;6.658;2023-05-16T10:19:13;14.00;71.00
58865;DHT22;45702;52.982;6.658;2023-05-16T10:21:41;13.90;69.60
58865;DHT22;45702;52.982;6.658;2023-05-16T10:24:11;13.90;69.40
58865;DHT22;45702;52.982;6.658;2023-05-16T10:26:40;13.90;70.70
58865;DHT22;45702;52.982;6.658;2023-05-16T10:29:06;14.10;71.70
58865;DHT22;45702;52.982;6.658;2023-05-16T10:31:31;14.30;72.80
58865;DHT22;45702;52.982;6.658;2023-05-16T10:33:57;14.30;73.00
58865;DHT22;45702;52.982;6.658;2023-05-16T10:36:23;14.30;74.10
58865;DHT22;45702;52.982;6.658;2023-05-16T10:38:50;14.30;75.20
58865;DHT22;45702;52.982;6.658;2023-05-16T10:41:16;14.40;72.50
58865;DHT22;45702;52.982;6.658;2023-05-16T10:43:44;14.40;72.80
58865;DHT22;45702;52.982;6.658;2023-05-16T10:46:11;14.60;73.60
58865;DHT22;45702;52.982;6.658;2023-05-16T10:48:40;14.70;73.00
58865;DHT22;45702;52.982;6.658;2023-05-16T10:53:51;14.70;71.50
58865;DHT22;45702;52.982;6.658;2023-05-16T10:56:22;14.50;71.60
58865;DHT22;45702;52.982;6.658;2023-05-16T10:58:48;14.40;70.80
58865;DHT22;45702;52.982;6.658;2023-05-16T11:01:21;14.40;70.50
58865;DHT22;45702;52.982;6.658;2023-05-16T11:14:38;14.30;67.10
58865;DHT22;45702;52.982;6.658;2023-05-16T11:17:23;14.20;65.20
58865;DHT22;45702;52.982;6.658;2023-05-16T11:19:50;14.10;66.80
58865;DHT22;45702;52.982;6.658;2023-05-16T11:25:05;14.30;66.30
58865;DHT22;45702;52.982;6.658;2023-05-16T11:27:35;14.40;67.70
58865;DHT22;45702;52.982;6.658;2023-05-16T11:32:33;14.60;68.60
58865;DHT22;45702;52.982;6.658;2023-05-16T11:34:59;14.70;66.10
58865;DHT22;45702;52.982;6.658;2023-05-16T11:37:26;14.70;63.80
58865;DHT22;45702;52.982;6.658;2023-05-16T11:39:52;14.80;64.00
58865;DHT22;45702;52.982;6.658;2023-05-16T11:42:18;14.80;63.90
58865;DHT22;45702;52.982;6.658;2023-05-16T11:44:45;14.80;64.00
58865;DHT22;45702;52.982;6.658;2023-05-16T11:47:11;14.80;64.40
58865;DHT22;45702;52.982;6.658;2023-05-16T11:49:37;14.90;65.80
58865;DHT22;45702;52.982;6.658;2023-05-16T11:52:03;14.90;64.80
58865;DHT22;45702;52.982;6.658;2023-05-16T11:54:29;14.90;64.40
58865;DHT22;45702;52.982;6.658;2023-05-16T11:56:56;14.80;64.40
58865;DHT22;45702;52.982;6.658;2023-05-16T11:59:22;14.60;64.80
58865;DHT22;45702;52.982;6.658;2023-05-16T12:01:48;14.60;65.60
58865;DHT22;45702;52.982;6.658;2023-05-16T12:04:15;14.50;66.10
58865;DHT22;45702;52.982;6.658;2023-05-16T12:06:42;14.40;66.70
58865;DHT22;45702;52.982;6.658;2023-05-16T12:09:12;14.40;65.90
58865;DHT22;45702;52.982;6.658;2023-05-16T12:11:40;14.40;69.40
58865;DHT22;45702;52.982;6.658;2023-05-16T12:14:07;14.60;72.70
58865;DHT22;45702;52.982;6.658;2023-05-16T12:16:36;14.80;72.80
58865;DHT22;45702;52.982;6.658;2023-05-16T12:19:03;14.90;70.00
58865;DHT22;45702;52.982;6.658;2023-05-16T12:21:33;14.90;70.30
58865;DHT22;45702;52.982;6.658;2023-05-16T12:23:59;14.90;69.40
58865;DHT22;45702;52.982;6.658;2023-05-16T12:26:30;14.80;70.20
58865;DHT22;45702;52.982;6.658;2023-05-16T12:28:59;14.80;70.10
58865;DHT22;45702;52.982;6.658;2023-05-16T12:31:28;14.80;69.90
58865;DHT22;45702;52.982;6.658;2023-05-16T12:33:56;14.70;69.90
58865;DHT22;45702;52.982;6.658;2023-05-16T12:36:22;14.60;70.70
58865;DHT22;45702;52.982;6.658;2023-05-16T12:38:49;14.40;70.60
58865;DHT22;45702;52.982;6.658;2023-05-16T12:41:25;14.30;71.00
58865;DHT22;45702;52.982;6.658;2023-05-16T12:44:11;14.20;71.80
58865;DHT22;45702;52.982;6.658;2023-05-16T12:46:43;14.20;72.70
58865;DHT22;45702;52.982;6.658;2023-05-16T12:49:10;14.30;73.20
58865;DHT22;45702;52.982;6.658;2023-05-16T12:51:37;14.40;73.90
58865;DHT22;45702;52.982;6.658;2023-05-16T12:54:10;14.50;73.70
58865;DHT22;45702;52.982;6.658;2023-05-16T12:56:37;14.50;71.80
58865;DHT22;45702;52.982;6.658;2023-05-16T12:59:03;14.50;72.90
58865;DHT22;45702;52.982;6.658;2023-05-16T13:01:29;14.50;72.70
58865;DHT22;45702;52.982;6.658;2023-05-16T13:03:54;14.40;72.40
58865;DHT22;45702;52.982;6.658;2023-05-16T13:06:20;14.40;71.90
58865;DHT22;45702;52.982;6.658;2023-05-16T13:08:46;14.50;72.00
58865;DHT22;45702;52.982;6.658;2023-05-16T13:11:11;14.60;68.70
58865;DHT22;45702;52.982;6.658;2023-05-16T13:13:37;14.60;66.40
58865;DHT22;45702;52.982;6.658;2023-05-16T13:16:03;14.50;65.20
58865;DHT22;45702;52.982;6.658;2023-05-16T13:18:28;14.40;65.20
58865;DHT22;45702;52.982;6.658;2023-05-16T13:20:54;14.40;67.70
58865;DHT22;45702;52.982;6.658;2023-05-16T13:23:20;14.50;68.50
58865;DHT22;45702;52.982;6.658;2023-05-16T13:25:46;14.50;70.40
58865;DHT22;45702;52.982;6.658;2023-05-16T13:28:11;14.50;71.00
58865;DHT22;45702;52.982;6.658;2023-05-16T13:30:38;14.40;70.80
58865;DHT22;45702;52.982;6.658;2023-05-16T13:33:03;14.30;72.40
58865;DHT22;45702;52.982;6.658;2023-05-16T13:35:29;14.20;74.20
58865;DHT22;45702;52.982;6.658;2023-05-16T13:37:55;14.20;75.70
58865;DHT22;45702;52.982;6.658;2023-05-16T13:40:20;14.20;77.70
58865;DHT22;45702;52.982;6.658;2023-05-16T13:42:46;14.20;79.20
58865;DHT22;45702;52.982;6.658;2023-05-16T13:45:12;14.20;78.70
58865;DHT22;45702;52.982;6.658;2023-05-16T13:47:37;14.30;79.60
58865;DHT22;45702;52.982;6.658;2023-05-16T13:50:04;14.40;79.70
58865;DHT22;45702;52.982;6.658;2023-05-16T13:52:33;14.60;81.10
58865;DHT22;45702;52.982;6.658;2023-05-16T13:55:00;14.80;80.80
58865;DHT22;45702;52.982;6.658;2023-05-16T13:57:25;14.80;80.10
58865;DHT22;45702;52.982;6.658;2023-05-16T13:59:52;14.80;77.80
58865;DHT22;45702;52.982;6.658;2023-05-16T14:02:18;14.70;76.40
58865;DHT22;45702;52.982;6.658;2023-05-16T14:04:44;14.50;75.40
58865;DHT22;45702;52.982;6.658;2023-05-16T14:07:10;14.20;75.30
58865;DHT22;45702;52.982;6.658;2023-05-16T14:09:35;14.10;75.60
58865;DHT22;45702;52.982;6.658;2023-05-16T14:12:07;14.10;76.80
58865;DHT22;45702;52.982;6.658;2023-05-16T14:14:37;14.00;78.10
58865;DHT22;45702;52.982;6.658;2023-05-16T14:17:03;14.00;78.90
58865;DHT22;45702;52.982;6.658;2023-05-16T14:19:29;13.90;80.40
58865;DHT22;45702;52.982;6.658;2023-05-16T14:21:55;13.80;81.40
58865;DHT22;45702;52.982;6.658;2023-05-16T14:24:21;13.50;85.40
58865;DHT22;45702;52.982;6.658;2023-05-16T14:26:47;13.10;90.60
58865;DHT22;45702;52.982;6.658;2023-05-16T14:29:13;12.80;92.90
58865;DHT22;45702;52.982;6.658;2023-05-16T14:31:39;12.50;94.40
58865;DHT22;45702;52.982;6.658;2023-05-16T14:34:05;12.30;95.70
58865;DHT22;45702;52.982;6.658;2023-05-16T14:36:31;12.10;97.10
58865;DHT22;45702;52.982;6.658;2023-05-16T14:38:57;12.10;98.60
58865;DHT22;45702;52.982;6.658;2023-05-16T14:41:22;12.20;99.90
58865;DHT22;45702;52.982;6.658;2023-05-16T14:43:49;12.30;99.90
58865;DHT22;45702;52.982;6.658;2023-05-16T14:46:14;12.60;99.90
58865;DHT22;45702;52.982;6.658;2023-05-16T14:48:41;12.80;99.90
58865;DHT22;45702;52.982;6.658;2023-05-16T14:51:07;12.80;99.90
58865;DHT22;45702;52.982;6.658;2023-05-16T14:53:33;12.80;99.30
58865;DHT22;45702;52.982;6.658;2023-05-16T14:55:59;12.70;99.30
58865;DHT22;45702;52.982;6.658;2023-05-16T14:58:27;12.70;99.30
58865;DHT22;45702;52.982;6.658;2023-05-16T15:00:53;12.40;99.10
58865;DHT22;45702;52.982;6.658;2023-05-16T15:03:18;12.30;99.90
58865;DHT22;45702;52.982;6.658;2023-05-16T15:05:44;12.30;99.90
58865;DHT22;45702;52.982;6.658;2023-05-16T15:08:10;12.40;99.90
58865;DHT22;45702;52.982;6.658;2023-05-16T15:10:36;12.40;99.90
58865;DHT22;45702;52.982;6.658;2023-05-16T15:13:01;12.40;99.90
58865;DHT22;45702;52.982;6.658;2023-05-16T15:15:28;12.40;99.90
58865;DHT22;45702;52.982;6.658;2023-05-16T15:17:54;12.30;99.90
58865;DHT22;45702;52.982;6.658;2023-05-16T15:20:20;12.30;99.90
58865;DHT22;45702;52.982;6.658;2023-05-16T15:22:46;12.30;99.90
58865;DHT22;45702;52.982;6.658;2023-05-16T15:25:12;12.40;99.90
58865;DHT22;45702;52.982;6.658;2023-05-16T15:27:38;12.40;99.90
58865;DHT22;45702;52.982;6.658;2023-05-16T15:30:04;12.30;99.90
58865;DHT22;45702;52.982;6.658;2023-05-16T15:32:29;12.30;99.90
58865;DHT22;45702;52.982;6.658;2023-05-16T15:34:55;12.30;99.90
58865;DHT22;45702;52.982;6.658;2023-05-16T15:37:21;12.50;99.90
58865;DHT22;45702;52.982;6.658;2023-05-16T15:39:47;12.60;99.90
58865;DHT22;45702;52.982;6.658;2023-05-16T15:42:13;12.60;99.90
58865;DHT22;45702;52.982;6.658;2023-05-16T15:44:39;12.60;99.90
58865;DHT22;45702;52.982;6.658;2023-05-16T15:47:05;12.60;99.90
58865;DHT22;45702;52.982;6.658;2023-05-16T15:49:31;12.60;99.90
58865;DHT22;45702;52.982;6.658;2023-05-16T15:51:56;12.60;99.90
58865;DHT22;45702;52.982;6.658;2023-05-16T15:54:22;12.60;99.90
58865;DHT22;45702;52.982;6.658;2023-05-16T15:56:48;12.60;99.70
58865;DHT22;45702;52.982;6.658;2023-05-16T15:59:13;12.60;98.70
58865;DHT22;45702;52.982;6.658;2023-05-16T16:01:39;12.60;97.80